Terminal Aerodrome Forecast
Issued by NWS North Platte, NE

Home | Current Version | Previous Version | Graphics & Text | Print | Product List | Glossary On
Versions: 1 2 3 4 5 6 7 8 9 10 11 12 13 14 15 16 17 18 19 20 21 22 23
000
FTUS43 KLBF 262323
TAFVTN
TAF
KVTN 262323Z 2700/2724 24010KT P6SM FEW250
     FM270600 22006KT P6SM FEW200
     FM271100 21006KT P6SM SCT250 WS020/21040KT
     FM271500 20010KT P6SM SCT250
     FM272300 19009KT P6SM BKN110=

USA.gov is the U.S. government's official web portal to all federal, state and local government web resources and services.